Rex, Arkansas
Current Conditions -  °F | °C
As of 7:55 PM on Sunday 21 Dec 2014 (Local Time) from KCCA Reporting Station
Overcast Overcast  
Wind Chill: 48°   Ceiling: 4800
Heat Index: 48°   Visibility: 8mi
Dew Point: 37°   Wind: 0mph
Humidity: 66%   Direction: NA
Pressure: 29.95"   Gusts: NA
Location:  35.6269°N, 92.5508°W
Report Text: KCCA 220155Z AUTO 00000KT 8SM BKN048 OVC070 09/03 A2995 RMK AO2
Loading
Personal Weather Stations






























Interactive Weather Map New forecast layout! Learn more

10-Day Weather Forecast

Advertisements
Track Severe Weather on mobile